Time;durP1;ratioP1;P1;durP2;ratioP2;P2;SDS_P1;SDS_P2;PMS_P1;PMS_P2;Temp;Humidity;BMP_temperature;BMP_pressure;BME280_temperature;BME280_humidity;BME280_pressure;Samples;Min_cycle;Max_cycle;Signal;HPM_P1;HPM_P2
2023/04/25 00:00:47;;;;;;;12.63;9.25;;;;;;;12.27;nan;99456.72;4963995;28;20076;-71
2023/04/25 00:03:13;;;;;;;14.50;10.15;;;;;;;12.27;nan;99455.94;4958618;28;20718;-72
2023/04/25 00:05:39;;;;;;;13.27;9.23;;;;;;;12.28;nan;99449.56;4959853;28;20158;-72
2023/04/25 00:08:05;;;;;;;16.40;8.43;;;;;;;12.24;nan;99444.03;4961335;28;20622;-72
2023/04/25 00:10:30;;;;;;;12.95;8.65;;;;;;;12.20;nan;99442.19;4960717;28;20059;-71
2023/04/25 00:12:57;;;;;;;15.30;8.88;;;;;;;12.28;nan;99449.56;4957484;28;20490;-71
2023/04/25 00:15:22;;;;;;;17.98;8.98;;;;;;;12.08;nan;99423.91;4956974;28;20027;-70
2023/04/25 00:17:48;;;;;;;10.50;7.82;;;;;;;12.26;nan;99449.03;4955546;28;20980;-72
2023/04/25 00:20:14;;;;;;;11.68;7.88;;;;;;;12.18;nan;99439.78;4961491;28;20035;-71
2023/04/25 00:22:39;;;;;;;10.88;8.57;;;;;;;12.23;nan;99449.56;4957444;28;20034;-72
2023/04/25 00:25:06;;;;;;;12.70;8.13;;;;;;;12.20;nan;99442.19;4960616;28;20465;-75
2023/04/25 00:27:31;;;;;;;14.65;8.55;;;;;;;12.12;nan;99427.63;4961518;28;20093;-75
2023/04/25 00:29:57;;;;;;;10.38;8.02;;;;;;;12.17;nan;99440.06;4966550;28;20062;-75
2023/04/25 00:32:22;;;;;;;10.70;7.65;;;;;;;12.08;nan;99421.28;4960722;28;20638;-75
2023/04/25 00:34:48;;;;;;;10.88;7.03;;;;;;;11.96;nan;99402.25;4973849;28;20445;-75
2023/04/25 00:37:13;;;;;;;10.38;7.57;;;;;;;11.87;nan;99394.81;4960503;28;20389;-75
2023/04/25 00:39:39;;;;;;;9.25;6.93;;;;;;;11.82;nan;99375.50;4960246;28;20045;-74
2023/04/25 00:42:05;;;;;;;9.23;6.90;;;;;;;11.52;nan;99355.06;4962430;28;20121;-75
2023/04/25 00:44:32;;;;;;;12.82;7.03;;;;;;;11.58;nan;99349.56;4961049;28;20031;-75
2023/04/25 00:46:57;;;;;;;11.75;7.20;;;;;;;11.87;nan;99399.28;4960013;28;20027;-75
2023/04/25 00:49:23;;;;;;;8.90;6.90;;;;;;;11.87;nan;99386.09;4960149;28;20029;-74
2023/04/25 00:51:48;;;;;;;9.35;6.80;;;;;;;11.99;nan;99415.69;4961998;28;20038;-75
2023/04/25 00:54:15;;;;;;;9.18;6.70;;;;;;;11.73;nan;99369.91;4960490;28;20484;-75
2023/04/25 00:56:41;;;;;;;12.50;7.32;;;;;;;11.56;nan;99362.19;4959283;28;20035;-75
2023/04/25 00:59:07;;;;;;;9.07;7.22;;;;;;;11.42;nan;99330.25;4972798;28;20397;-75
2023/04/25 01:01:33;;;;;;;8.57;6.47;;;;;;;11.46;nan;99326.03;4960760;28;20515;-75
2023/04/25 01:03:58;;;;;;;8.75;6.28;;;;;;;11.83;nan;99391.09;4959425;28;20027;-75
2023/04/25 01:06:24;;;;;;;12.27;6.18;;;;;;;11.44;nan;99327.34;4956556;28;20034;-75
2023/04/25 01:08:51;;;;;;;8.05;6.10;;;;;;;11.56;nan;99361.41;4961070;28;20037;-74
2023/04/25 01:11:17;;;;;;;7.95;5.93;;;;;;;11.58;nan;99373.28;4957417;28;20583;-75
2023/04/25 01:13:43;;;;;;;7.10;6.20;;;;;;;11.38;nan;99341.56;4958573;28;20035;-75
2023/04/25 01:16:08;;;;;;;9.30;6.53;;;;;;;11.47;nan;99345.31;4958750;28;20038;-75
2023/04/25 01:18:34;;;;;;;9.30;6.20;;;;;;;11.84;nan;99395.31;4957690;28;20030;-75
2023/04/25 01:21:08;;;;;;;8.82;6.28;;;;;;;11.35;nan;99334.97;4965262;28;20035;-75
2023/04/25 01:23:33;;;;;;;9.60;6.70;;;;;;;11.27;nan;99309.09;4958976;28;20166;-75
2023/04/25 01:26:00;;;;;;;10.52;6.45;;;;;;;11.28;nan;99324.66;4957304;28;20114;-76
2023/04/25 01:28:25;;;;;;;11.30;6.95;;;;;;;11.49;nan;99346.63;4954267;28;20497;-75
2023/04/25 01:30:51;;;;;;;8.80;6.25;;;;;;;11.69;nan;99374.94;4957456;28;20037;-75
2023/04/25 01:33:19;;;;;;;9.35;6.55;;;;;;;11.56;nan;99346.38;4955759;28;20035;-75
2023/04/25 01:35:44;;;;;;;9.50;6.30;;;;;;;11.46;nan;99339.22;4958502;28;20042;-75
2023/04/25 01:38:12;;;;;;;10.27;6.07;;;;;;;11.69;nan;99380.22;4964451;28;20026;-75
2023/04/25 01:40:40;;;;;;;9.15;6.70;;;;;;;11.67;nan;99371.75;4957967;28;20066;-75
2023/04/25 01:43:06;;;;;;;10.40;7.00;;;;;;;11.26;nan;99318.84;4955878;28;20027;-74
2023/04/25 01:45:32;;;;;;;9.73;6.70;;;;;;;11.53;nan;99346.13;4959011;28;20406;-75
2023/04/25 01:47:59;;;;;;;7.93;6.18;;;;;;;11.45;nan;99342.13;4958378;28;20544;-75
2023/04/25 01:50:25;;;;;;;10.02;6.20;;;;;;;11.47;nan;99351.38;4958389;28;20405;-75
2023/04/25 01:52:51;;;;;;;8.73;6.35;;;;;;;11.56;nan;99358.78;4958181;28;20466;-75
2023/04/25 01:55:16;;;;;;;8.55;6.40;;;;;;;11.70;nan;99394.97;4961990;28;20046;-75
2023/04/25 01:57:42;;;;;;;11.45;6.90;;;;;;;11.58;nan;99351.41;4956140;28;20062;-75
2023/04/25 02:00:08;;;;;;;8.60;6.57;;;;;;;11.56;nan;99343.75;4973610;28;20039;-71
2023/04/25 02:02:35;;;;;;;9.98;6.68;;;;;;;11.68;nan;99364.63;4954733;28;20052;-72
2023/04/25 02:05:01;;;;;;;8.82;6.65;;;;;;;11.75;nan;99375.75;4959595;28;20031;-71
2023/04/25 02:07:27;;;;;;;8.93;6.43;;;;;;;11.78;nan;99377.88;4957859;28;20133;-72
2023/04/25 02:09:52;;;;;;;9.18;6.53;;;;;;;11.80;nan;99383.66;4971403;28;20477;-69
2023/04/25 02:12:18;;;;;;;8.77;6.50;;;;;;;11.79;nan;99379.47;4960766;28;20034;-71
2023/04/25 02:14:43;;;;;;;11.80;6.30;;;;;;;11.83;nan;99387.66;4952889;28;20134;-72
2023/04/25 02:17:08;;;;;;;9.50;6.22;;;;;;;11.79;nan;99368.13;4972446;28;20027;-71
2023/04/25 02:19:34;;;;;;;9.63;6.57;;;;;;;11.81;nan;99372.09;4958227;28;20066;-72
2023/04/25 02:21:59;;;;;;;9.68;7.32;;;;;;;11.71;nan;99354.38;4957344;28;20529;-71
2023/04/25 02:24:25;;;;;;;10.52;6.40;;;;;;;11.77;nan;99362.31;4955498;28;20677;-72
2023/04/25 02:26:50;;;;;;;9.38;6.72;;;;;;;11.78;nan;99355.97;4957921;28;20445;-72
2023/04/25 02:29:16;;;;;;;10.43;7.22;;;;;;;11.79;nan;99357.56;4956099;28;20039;-71
2023/04/25 02:31:42;;;;;;;8.82;6.72;;;;;;;11.81;nan;99347.56;4955810;28;20081;-70
2023/04/25 02:34:07;;;;;;;10.32;7.60;;;;;;;11.81;nan;99342.28;4956943;28;20404;-72
2023/04/25 02:36:35;;;;;;;9.05;6.53;;;;;;;11.86;nan;99350.22;4955766;28;20034;-71
2023/04/25 02:39:01;;;;;;;8.95;7.10;;;;;;;11.89;nan;99355.78;4956203;28;20607;-71
2023/04/25 02:41:27;;;;;;;10.55;7.28;;;;;;;11.90;nan;99349.47;4958532;28;20121;-72
2023/04/25 02:43:52;;;;;;;9.77;6.88;;;;;;;11.86;nan;99345.72;4960267;28;20023;-72
2023/04/25 02:46:18;;;;;;;12.48;7.97;;;;;;;11.93;nan;99350.78;4960430;28;20031;-71
2023/04/25 02:48:43;;;;;;;12.38;7.07;;;;;;;11.91;nan;99351.03;4958369;28;20035;-72
2023/04/25 02:51:09;;;;;;;9.57;7.43;;;;;;;11.97;nan;99361.59;4954839;28;20054;-71
2023/04/25 02:53:34;;;;;;;10.48;7.55;;;;;;;11.91;nan;99351.03;4955963;28;20520;-75
2023/04/25 02:56:00;;;;;;;10.05;7.43;;;;;;;11.93;nan;99345.50;4959502;28;20065;-74
2023/04/25 02:58:25;;;;;;;13.00;7.97;;;;;;;11.86;nan;99343.09;4955434;28;20393;-74
2023/04/25 03:00:50;;;;;;;10.50;7.63;;;;;;;11.84;nan;99331.22;4958180;28;20031;-76
2023/04/25 03:03:21;;;;;;;11.02;7.88;;;;;;;11.93;nan;99353.44;4954520;28;20074;-75
2023/04/25 03:05:48;;;;;;;9.68;7.60;;;;;;;11.82;nan;99330.66;4957049;28;20034;-74
2023/04/25 03:08:13;;;;;;;10.75;7.78;;;;;;;11.76;nan;99316.69;4971559;28;20511;-74
2023/04/25 03:10:39;;;;;;;10.68;8.32;;;;;;;11.77;nan;99315.63;4954650;28;20059;-75
2023/04/25 03:13:05;;;;;;;12.57;7.97;;;;;;;11.79;nan;99320.66;4954556;28;20042;-75
2023/04/25 03:15:31;;;;;;;10.20;7.72;;;;;;;11.93;nan;99345.50;4975488;28;20053;-75
2023/04/25 03:17:56;;;;;;;11.60;8.32;;;;;;;11.71;nan;99304.28;4956823;28;20037;-75
2023/04/25 03:20:22;;;;;;;12.02;8.57;;;;;;;11.64;nan;99281.84;4956670;28;20038;-76
2023/04/25 03:22:47;;;;;;;11.55;8.43;;;;;;;11.80;nan;99314.31;4951625;28;20498;-75
2023/04/25 03:25:13;;;;;;;11.07;8.43;;;;;;;11.52;nan;99270.69;4956961;28;20031;-75
2023/04/25 03:27:38;;;;;;;15.38;9.70;;;;;;;11.70;nan;99307.94;4960768;28;20050;-75
2023/04/25 03:30:04;;;;;;;16.52;10.20;;;;;;;11.73;nan;99313.75;4957508;28;20143;-75
2023/04/25 03:32:30;;;;;;;19.08;11.32;;;;;;;11.20;nan;99232.09;4956539;28;20035;-76
2023/04/25 03:34:55;;;;;;;18.58;11.52;;;;;;;11.71;nan;99312.19;4961271;28;20030;-75
2023/04/25 03:37:21;;;;;;;15.70;10.15;;;;;;;11.36;nan;99256.69;4956788;28;20069;-74
2023/04/25 03:39:46;;;;;;;15.85;10.80;;;;;;;11.21;nan;99245.03;4962336;28;20158;-75
2023/04/25 03:42:12;;;;;;;16.38;11.73;;;;;;;11.62;nan;99290.00;4972534;28;20122;-76
2023/04/25 03:44:37;;;;;;;16.55;11.00;;;;;;;11.37;nan;99263.53;4976687;28;20031;-75
2023/04/25 03:47:02;;;;;;;20.80;12.20;;;;;;;11.54;nan;99289.69;4975025;28;20473;-76
2023/04/25 03:49:28;;;;;;;18.20;11.85;;;;;;;11.65;nan;99310.56;4962583;28;20565;-75
2023/04/25 03:51:53;;;;;;;18.08;12.32;;;;;;;11.81;nan;99329.09;4957904;28;20042;-74
2023/04/25 03:54:19;;;;;;;22.77;14.30;;;;;;;11.84;nan;99339.13;4958591;28;20037;-76
2023/04/25 03:56:44;;;;;;;26.75;15.60;;;;;;;11.58;nan;99298.69;4960265;28;20027;-71
2023/04/25 03:59:09;;;;;;;28.85;14.90;;;;;;;11.72;nan;99328.78;4959207;28;20043;-70
2023/04/25 04:01:35;;;;;;;21.85;13.85;;;;;;;11.52;nan;99291.78;4965639;28;20485;-71
2023/04/25 04:04:00;;;;;;;21.83;14.30;;;;;;;11.73;nan;99325.09;4962171;28;20138;-71
2023/04/25 04:06:26;;;;;;;19.23;13.68;;;;;;;11.76;nan;99331.72;4967866;28;20042;-71
2023/04/25 04:08:52;;;;;;;20.30;13.93;;;;;;;11.80;nan;99332.78;4959308;28;20840;-72
2023/04/25 04:11:17;;;;;;;21.60;14.68;;;;;;;11.84;nan;99341.75;4959934;28;20030;-72
2023/04/25 04:13:42;;;;;;;21.83;14.80;;;;;;;11.81;nan;99337.00;4977428;28;20037;-72
2023/04/25 04:16:08;;;;;;;19.48;13.73;;;;;;;11.78;nan;99332.22;4960273;28;20481;-72
2023/04/25 04:18:33;;;;;;;20.85;14.18;;;;;;;11.80;nan;99340.69;4957535;28;20043;-71
2023/04/25 04:20:59;;;;;;;19.92;13.82;;;;;;;11.75;nan;99338.03;4958255;28;20059;-72
2023/04/25 04:23:26;;;;;;;20.83;13.82;;;;;;;11.76;nan;99340.41;4959467;28;20023;-72
2023/04/25 04:25:53;;;;;;;20.17;13.13;;;;;;;11.78;nan;99342.78;4961472;28;20058;-72
2023/04/25 04:28:19;;;;;;;19.73;13.00;;;;;;;11.75;nan;99338.03;4960141;28;20142;-72
2023/04/25 04:30:45;;;;;;;21.80;14.57;;;;;;;11.79;nan;99337.25;4960807;28;20039;-72
2023/04/25 04:33:11;;;;;;;21.13;13.82;;;;;;;11.73;nan;99327.72;4972593;28;20400;-72
2023/04/25 04:35:37;;;;;;;21.13;14.13;;;;;;;11.81;nan;99331.72;4959477;28;20541;-70
2023/04/25 04:38:03;;;;;;;20.77;13.70;;;;;;;11.84;nan;99331.22;4961788;28;20126;-71
2023/04/25 04:40:31;;;;;;;19.95;14.07;;;;;;;11.80;nan;99330.13;4957155;28;20109;-71
2023/04/25 04:42:57;;;;;;;24.02;13.18;;;;;;;11.75;nan;99316.94;4958739;28;20039;-71
2023/04/25 04:45:23;;;;;;;23.20;14.93;;;;;;;11.89;nan;99339.94;4954015;28;20039;-71
2023/04/25 04:47:49;;;;;;;20.70;13.75;;;;;;;11.82;nan;99328.03;4955931;28;20031;-69
2023/04/25 04:50:15;;;;;;;20.27;14.45;;;;;;;11.93;nan;99344.72;4955907;28;20103;-71
2023/04/25 04:52:41;;;;;;;19.63;13.63;;;;;;;11.93;nan;99345.50;4956114;28;20039;-69
2023/04/25 04:55:08;;;;;;;22.85;13.88;;;;;;;11.83;nan;99327.00;4959096;28;20481;-70
2023/04/25 04:57:34;;;;;;;23.23;13.88;;;;;;;11.93;nan;99345.50;4956407;28;20034;-70
2023/04/25 05:00:01;;;;;;;24.98;13.38;;;;;;;11.81;nan;99329.88;4958559;28;20493;-71
2023/04/25 05:02:27;;;;;;;22.33;14.45;;;;;;;11.90;nan;99344.19;4956114;28;20040;-72
2023/04/25 05:04:52;;;;;;;19.20;13.38;;;;;;;11.90;nan;99352.09;4957421;28;20035;-72
2023/04/25 05:07:19;;;;;;;18.33;12.82;;;;;;;11.89;nan;99352.34;4957231;28;20055;-71
2023/04/25 05:09:44;;;;;;;19.38;12.93;;;;;;;11.88;nan;99343.66;4957943;28;20041;-71
2023/04/25 05:12:10;;;;;;;22.70;15.32;;;;;;;11.89;nan;99344.44;4962254;28;20393;-71
2023/04/25 05:14:36;;;;;;;25.10;15.63;;;;;;;11.88;nan;99341.00;4958548;28;20093;-69
2023/04/25 05:17:04;;;;;;;21.30;13.93;;;;;;;11.85;nan;99335.41;4958368;28;20069;-70
2023/04/25 05:19:30;;;;;;;27.60;14.93;;;;;;;11.86;nan;99339.66;4957376;28;20572;-68
2023/04/25 05:21:55;;;;;;;24.52;15.20;;;;;;;11.88;nan;99337.59;4960959;28;20047;-71
2023/04/25 05:24:21;;;;;;;20.98;14.02;;;;;;;11.95;nan;99350.50;4959573;28;20035;-70
2023/04/25 05:26:46;;;;;;;24.58;14.07;;;;;;;11.87;nan;99328.06;4958280;28;20038;-70
2023/04/25 05:29:12;;;;;;;22.00;13.80;;;;;;;11.92;nan;99343.91;4973016;28;20074;-71
2023/04/25 05:31:38;;;;;;;26.45;14.80;;;;;;;11.80;nan;99324.84;4957055;28;20051;-71
2023/04/25 05:34:05;;;;;;;21.55;13.60;;;;;;;11.85;nan;99338.06;4956080;28;20058;-69
2023/04/25 05:36:32;;;;;;;26.95;13.73;;;;;;;11.94;nan;99357.63;4954373;28;20035;-70
2023/04/25 05:38:58;;;;;;;25.27;14.85;;;;;;;11.95;nan;99351.31;4958164;28;20402;-71
2023/04/25 05:41:25;;;;;;;26.73;15.80;;;;;;;11.88;nan;99345.50;4953524;28;20031;-70
2023/04/25 05:43:51;;;;;;;24.15;15.52;;;;;;;11.85;nan;99344.16;4956456;28;20031;-71
2023/04/25 05:46:16;;;;;;;25.40;15.35;;;;;;;11.88;nan;99348.13;4960093;28;20031;-71
2023/04/25 05:48:45;;;;;;;26.52;16.02;;;;;;;11.76;nan;99329.88;4957620;28;20146;-69
2023/04/25 05:51:10;;;;;;;27.67;16.80;;;;;;;11.80;nan;99345.94;4976254;28;20867;-75
2023/04/25 05:53:35;;;;;;;27.33;17.17;;;;;;;11.79;nan;99339.09;4983256;28;20031;-75
2023/04/25 05:56:01;;;;;;;28.35;17.33;;;;;;;11.79;nan;99345.16;4988302;28;20015;-75
2023/04/25 05:58:26;;;;;;;34.35;19.77;;;;;;;11.74;nan;99331.19;4982202;28;20080;-76
2023/04/25 06:00:52;;;;;;;33.42;20.27;;;;;;;11.70;nan;99336.16;4981971;28;20066;-75
2023/04/25 06:03:17;;;;;;;38.13;21.92;;;;;;;11.76;nan;99347.53;4964161;28;20500;-69
2023/04/25 06:05:43;;;;;;;42.53;22.20;;;;;;;11.82;nan;99355.19;4956040;28;20035;-69
2023/04/25 06:08:10;;;;;;;46.40;24.17;;;;;;;11.78;nan;99345.41;4958787;28;20033;-72
2023/04/25 06:10:36;;;;;;;42.78;23.17;;;;;;;11.62;nan;99332.19;4959661;28;20034;-72
2023/04/25 06:13:02;;;;;;;41.75;23.33;;;;;;;11.66;nan;99345.63;4972587;28;20433;-72
2023/04/25 06:15:27;;;;;;;45.08;24.27;;;;;;;11.66;nan;99345.63;4971803;28;20069;-73
2023/04/25 06:17:53;;;;;;;46.13;23.73;;;;;;;11.74;nan;99352.28;4957314;28;20396;-69
2023/04/25 06:20:22;;;;;;;35.67;21.90;;;;;;;11.62;nan;99353.28;4958080;28;20052;-71
2023/04/25 06:22:48;;;;;;;29.13;17.05;;;;;;;11.60;nan;99355.38;4957791;28;20035;-70
2023/04/25 06:25:13;;;;;;;21.35;13.70;;;;;;;11.42;nan;99361.88;4949043;28;20062;-73
2023/04/25 06:27:41;;;;;;;22.33;13.75;;;;;;;11.45;nan;99358.75;4928341;28;20047;-71
2023/04/25 06:30:07;;;;;;;22.13;14.05;;;;;;;11.27;nan;99348.63;4937142;28;20094;-78
2023/04/25 06:32:34;;;;;;;22.63;13.55;;;;;;;11.35;nan;99358.69;4922791;28;20075;-78
2023/04/25 06:35:00;;;;;;;21.15;12.73;;;;;;;11.14;nan;99338.53;4939949;28;20035;-73
2023/04/25 06:37:25;;;;;;;23.17;13.75;;;;;;;11.26;nan;99373.38;4938974;28;21141;-69
2023/04/25 06:39:51;;;;;;;26.35;13.90;;;;;;;11.14;nan;99354.34;4940447;28;20032;-68
2023/04/25 06:42:16;;;;;;;19.38;11.43;;;;;;;11.19;nan;99370.97;4934231;28;20118;-69
2023/04/25 06:44:42;;;;;;;19.42;11.38;;;;;;;11.15;nan;99364.63;4921933;29;20513;-69
2023/04/25 06:47:07;;;;;;;17.85;10.70;;;;;;;11.15;nan;99361.97;4935094;28;20047;-68
2023/04/25 06:49:33;;;;;;;23.25;12.70;;;;;;;11.19;nan;99370.97;4940145;28;20028;-71
2023/04/25 06:51:58;;;;;;;15.68;10.48;;;;;;;11.19;nan;99362.28;4917568;29;20166;-80
2023/04/25 06:54:29;;;;;;;14.90;9.25;;;;;;;11.03;nan;99361.38;4938193;28;20035;-68
2023/04/25 06:56:55;;;;;;;11.57;7.78;;;;;;;10.98;nan;99372.66;4926579;29;20167;-70
2023/04/25 06:59:21;;;;;;;13.38;9.05;;;;;;;10.99;nan;99381.34;4936583;28;20035;-71
2023/04/25 07:01:47;;;;;;;11.60;8.13;;;;;;;10.97;nan;99383.47;4939446;28;20020;-69
2023/04/25 07:04:12;;;;;;;13.50;8.60;;;;;;;10.96;nan;99387.13;4937855;28;20069;-70
2023/04/25 07:06:42;;;;;;;11.88;8.15;;;;;;;10.92;nan;99383.41;4939556;28;20030;-69
2023/04/25 07:09:08;;;;;;;;;;;;;;;10.86;nan;99386.00;4940187;28;20118;-76
2023/04/25 07:11:34;;;;;;;12.63;7.20;;;;;;;10.85;nan;99386.28;4942587;28;20057;-68
2023/04/25 07:13:59;;;;;;;10.80;6.88;;;;;;;10.80;nan;99380.97;4943472;28;20569;-68
2023/04/25 07:16:25;;;;;;;12.07;7.57;;;;;;;10.59;nan;99367.63;4940466;28;20640;-70
2023/04/25 07:18:50;;;;;;;13.70;8.55;;;;;;;10.76;nan;99383.31;4933699;29;20114;-73
2023/04/25 07:21:16;;;;;;;10.98;7.97;;;;;;;10.60;nan;99381.56;4926153;28;20030;-72
2023/04/25 07:23:41;;;;;;;11.15;7.63;;;;;;;10.70;nan;99396.66;4929719;29;20130;-70
2023/04/25 07:26:07;;;;;;;12.13;8.20;;;;;;;10.63;nan;99383.69;4922681;28;20028;-71
2023/04/25 07:28:33;;;;;;;11.05;7.82;;;;;;;10.44;nan;99367.50;4942643;28;20055;-76
2023/04/25 07:30:58;;;;;;;13.98;8.77;;;;;;;10.58;nan;99394.19;4926913;28;20600;-71
2023/04/25 07:33:24;;;;;;;9.90;7.53;;;;;;;10.48;nan;99400.16;4943733;28;20545;-71
2023/04/25 07:35:50;;;;;;;12.13;8.27;;;;;;;10.48;nan;99412.53;4941058;28;20024;-79
2023/04/25 07:38:15;;;;;;;11.60;8.45;;;;;;;10.35;nan;99400.56;4942879;28;20026;-79
2023/04/25 07:40:40;;;;;;;10.80;7.85;;;;;;;10.45;nan;99410.41;4928466;28;20030;-79
2023/04/25 07:43:06;;;;;;;11.88;8.60;;;;;;;10.42;nan;99414.31;4927990;29;20111;-79
2023/04/25 07:45:32;;;;;;;15.70;9.13;;;;;;;10.43;nan;99416.69;4944418;28;20052;-73
2023/04/25 07:47:57;;;;;;;12.07;8.95;;;;;;;10.31;nan;99402.88;4935991;28;20024;-71
2023/04/25 07:50:23;;;;;;;13.40;9.52;;;;;;;10.38;nan;99431.63;4942601;28;20031;-73
2023/04/25 07:52:48;;;;;;;13.40;9.35;;;;;;;10.38;nan;99415.84;4936869;28;20110;-73
2023/04/25 07:55:13;;;;;;;13.63;9.13;;;;;;;10.37;nan;99427.44;4944460;28;20046;-73
2023/04/25 07:57:39;;;;;;;12.85;9.27;;;;;;;10.47;nan;99438.06;4930502;28;20478;-73
2023/04/25 08:00:09;;;;;;;12.50;8.63;;;;;;;10.35;nan;99421.63;4942792;28;20034;-71
2023/04/25 08:02:36;;;;;;;12.23;8.65;;;;;;;10.35;nan;99438.19;4939529;28;20036;-72
2023/04/25 08:05:02;;;;;;;12.88;9.32;;;;;;;10.28;nan;99431.50;4942365;28;20098;-78
2023/04/25 08:07:27;;;;;;;12.07;8.02;;;;;;;10.23;nan;99445.41;4937903;28;20130;-77
2023/04/25 08:09:54;;;;;;;11.15;7.53;;;;;;;10.15;nan;99441.38;4943170;28;20083;-77
2023/04/25 08:12:19;;;;;;;9.95;7.30;;;;;;;9.73;nan;99420.06;4945730;28;20091;-77
2023/04/25 08:14:45;;;;;;;13.45;7.03;;;;;;;9.97;nan;99434.56;4946680;28;20069;-78
2023/04/25 08:17:10;;;;;;;9.98;7.00;;;;;;;9.98;nan;99462.47;4945031;28;20034;-77
2023/04/25 08:19:36;;;;;;;8.35;6.35;;;;;;;9.41;nan;99377.81;4941492;28;20023;-77
2023/04/25 08:22:01;;;;;;;10.15;7.50;;;;;;;9.47;nan;99395.25;4939110;28;20047;-76
2023/04/25 08:24:27;;;;;;;12.30;6.72;;;;;;;9.64;nan;99432.81;4931214;28;20023;-77
2023/04/25 08:26:53;;;;;;;8.98;6.80;;;;;;;9.48;nan;99413.44;4940929;28;20675;-77
2023/04/25 08:29:19;;;;;;;9.02;6.65;;;;;;;9.21;nan;99383.59;4944985;28;20034;-77
2023/04/25 08:31:44;;;;;;;11.05;6.72;;;;;;;9.49;nan;99443.91;4944120;28;20456;-76
2023/04/25 08:34:10;;;;;;;12.65;7.78;;;;;;;9.93;nan;99495.78;4924515;28;20031;-78
2023/04/25 08:36:36;;;;;;;8.70;6.57;;;;;;;9.06;nan;99381.53;4931798;28;20055;-78
2023/04/25 08:39:01;;;;;;;8.32;6.20;;;;;;;9.34;nan;99435.81;4940426;28;20058;-77
2023/04/25 08:41:27;;;;;;;8.05;6.40;;;;;;;9.63;nan;99462.00;4928477;28;20548;-78
2023/04/25 08:43:54;;;;;;;11.90;6.40;;;;;;;10.08;nan;99517.03;4941902;28;20051;-77
2023/04/25 08:46:20;;;;;;;12.32;6.57;;;;;;;9.28;nan;99432.31;4946620;28;20038;-77
2023/04/25 08:48:46;;;;;;;8.48;6.00;;;;;;;9.30;nan;99446.00;4943198;28;20027;-77
2023/04/25 08:51:24;;;;;;;9.00;6.18;;;;;;;9.78;nan;99497.16;4943162;28;20509;-78
2023/04/25 08:53:51;;;;;;;9.70;6.50;;;;;;;9.54;nan;99475.53;4939477;28;20031;-77
2023/04/25 08:56:17;;;;;;;8.65;6.50;;;;;;;9.42;nan;99443.28;4943453;28;20078;-77
2023/04/25 08:58:45;;;;;;;10.52;7.15;;;;;;;9.45;nan;99442.00;4939553;28;20039;-77
2023/04/25 09:01:11;;;;;;;9.75;6.80;;;;;;;9.06;nan;99400.72;4931101;29;20059;-72
2023/04/25 09:03:36;;;;;;;10.32;6.65;;;;;;;9.67;nan;99478.84;4937706;28;20073;-73
2023/04/25 09:06:02;;;;;;;7.85;5.70;;;;;;;10.00;nan;99528.75;4936827;28;20039;-73
2023/04/25 09:08:27;;;;;;;9.02;5.97;;;;;;;9.96;nan;99519.78;4942193;28;20091;-72
2023/04/25 09:10:53;;;;;;;8.15;5.63;;;;;;;9.97;nan;99526.59;4942360;28;20027;-72
2023/04/25 09:13:26;;;;;;;7.88;5.03;;;;;;;10.04;nan;99554.59;4936557;28;20042;-73
2023/04/25 09:15:54;;;;;;;10.77;5.95;;;;;;;10.11;nan;99553.38;4938875;28;20078;-72
2023/04/25 09:18:31;;;;;;;9.35;6.53;;;;;;;10.16;nan;99555.28;4938877;28;20481;-70
2023/04/25 09:21:05;;;;;;;9.45;6.63;;;;;;;10.10;nan;99543.09;4929460;29;20024;-71
2023/04/25 09:23:43;;;;;;;9.48;6.78;;;;;;;10.23;nan;99556.69;4942330;28;20039;-70
2023/04/25 09:26:09;;;;;;;9.77;7.32;;;;;;;10.09;nan;99537.03;4941595;28;20063;-72
2023/04/25 09:28:35;;;;;;;11.13;8.18;;;;;;;10.28;nan;99561.25;4937954;28;20086;-73
2023/04/25 09:31:01;;;;;;;9.68;7.25;;;;;;;10.29;nan;99565.47;4939205;28;20028;-73
2023/04/25 09:33:31;;;;;;;11.68;8.10;;;;;;;10.31;nan;99559.97;4936391;28;20039;-74
2023/04/25 09:36:26;;;;;;;11.25;7.85;;;;;;;10.33;nan;99563.94;4939497;28;20031;-73
2023/04/25 09:38:51;;;;;;;9.85;6.65;;;;;;;10.31;nan;99563.41;4937545;28;20039;-72
2023/04/25 09:41:25;;;;;;;10.15;6.75;;;;;;;10.34;nan;99570.81;4940435;28;20026;-74
2023/04/25 09:43:50;;;;;;;10.65;7.15;;;;;;;10.31;nan;99559.97;4939126;28;20038;-74
2023/04/25 09:46:18;;;;;;;10.15;6.15;;;;;;;10.39;nan;99564.81;4939229;28;20024;-74
2023/04/25 09:48:53;;;;;;;10.82;6.95;;;;;;;10.32;nan;99551.03;4939741;28;20045;-71
2023/04/25 09:51:19;;;;;;;9.65;5.60;;;;;;;10.35;nan;99561.09;4939377;28;20030;-71
2023/04/25 09:53:46;;;;;;;8.93;6.38;;;;;;;10.40;nan;99566.41;4940866;28;20529;-70
2023/04/25 09:56:13;;;;;;;9.27;5.95;;;;;;;10.40;nan;99561.94;4938774;28;20102;-75
2023/04/25 09:58:40;;;;;;;9.95;6.65;;;;;;;10.40;nan;99567.19;4940421;28;20026;-73
2023/04/25 10:01:07;;;;;;;9.15;6.65;;;;;;;10.43;nan;99565.91;4927587;28;20019;-72
2023/04/25 10:03:42;;;;;;;11.40;7.30;;;;;;;10.42;nan;99559.06;4929001;29;20401;-73
2023/04/25 10:06:11;;;;;;;12.38;7.97;;;;;;;10.49;nan;99564.16;4939340;28;20807;-71
2023/04/25 10:08:38;;;;;;;10.75;7.70;;;;;;;10.47;nan;99558.34;4939390;28;20027;-78
2023/04/25 10:11:05;;;;;;;11.50;7.55;;;;;;;10.43;nan;99556.19;4939230;28;20019;-76
2023/04/25 10:13:31;;;;;;;15.38;7.47;;;;;;;10.55;nan;99571.84;4941723;28;20529;-76
2023/04/25 10:16:02;;;;;;;11.63;7.28;;;;;;;10.46;nan;99552.25;4937353;28;20050;-79
2023/04/25 10:18:31;;;;;;;9.88;7.28;;;;;;;10.48;nan;99550.19;4938254;28;20023;-76
2023/04/25 10:21:01;;;;;;;;;;;;;;;10.59;nan;99559.00;4922863;29;20151;-78
2023/04/25 10:23:31;;;;;;;9.95;6.80;;;;;;;10.59;nan;99561.66;4923787;28;19919;-76
2023/04/25 10:26:00;;;;;;;9.18;7.18;;;;;;;10.53;nan;99560.78;4934905;28;20079;-77
2023/04/25 10:28:33;;;;;;;11.20;7.38;;;;;;;10.49;nan;99553.63;4935024;28;20058;-77
2023/04/25 10:31:03;;;;;;;15.45;8.85;;;;;;;10.52;nan;99563.66;4940161;28;20512;-73
2023/04/25 10:33:39;;;;;;;20.13;11.35;;;;;;;10.58;nan;99567.94;4936390;28;20114;-79
2023/04/25 10:36:25;;;;;;;13.57;8.68;;;;;;;10.54;nan;99562.38;4939584;28;20012;-77
2023/04/25 10:38:51;;;;;;;12.77;7.63;;;;;;;10.62;nan;99569.03;4922166;29;20028;-77
2023/04/25 10:41:21;;;;;;;11.32;6.43;;;;;;;10.58;nan;99560.84;4928613;28;20509;-76
2023/04/25 10:43:48;;;;;;;11.07;6.70;;;;;;;10.68;nan;99575.97;4937934;29;20031;-77
2023/04/25 10:46:30;;;;;;;17.30;9.60;;;;;;;10.74;nan;99567.06;4921751;28;20032;-76
2023/04/25 10:48:58;;;;;;;10.68;6.95;;;;;;;10.75;nan;99573.94;4922125;29;20035;-76
2023/04/25 10:51:26;;;;;;;10.00;6.72;;;;;;;10.58;nan;99544.25;4933087;28;20062;-79
2023/04/25 10:53:55;;;;;;;12.25;7.10;;;;;;;10.80;nan;99584.53;4928904;29;20131;-78
2023/04/25 10:56:23;;;;;;;9.90;5.93;;;;;;;10.78;nan;99577.94;4935380;28;20051;-76
2023/04/25 10:58:49;;;;;;;7.05;5.50;;;;;;;10.80;nan;99573.22;4935138;28;20031;-78
2023/04/25 11:01:20;;;;;;;7.80;5.65;;;;;;;10.71;nan;99567.56;4936321;28;20030;-77
2023/04/25 11:03:50;;;;;;;8.50;5.55;;;;;;;10.61;nan;99556.94;4936093;28;20802;-78
2023/04/25 11:06:44;;;;;;;8.68;5.90;;;;;;;10.77;nan;99577.09;4929134;28;20028;-75
2023/04/25 11:09:15;;;;;;;8.10;5.70;;;;;;;10.80;nan;99589.81;4941228;28;20042;-77
2023/04/25 11:11:41;;;;;;;9.80;6.75;;;;;;;10.81;nan;99594.00;4939159;28;20050;-76
2023/04/25 11:14:09;;;;;;;10.25;6.30;;;;;;;10.84;nan;99590.88;4929036;29;20745;-77
2023/04/25 11:16:37;;;;;;;8.95;6.50;;;;;;;10.85;nan;99586.44;4940362;28;20031;-78
2023/04/25 11:19:02;;;;;;;10.15;6.50;;;;;;;10.77;nan;99571.84;4936973;28;20035;-76
2023/04/25 11:21:32;;;;;;;12.55;7.55;;;;;;;10.83;nan;99580.63;4921272;28;20509;-78
2023/04/25 11:23:57;;;;;;;;;;;;;;;10.88;nan;99588.56;4936612;28;20422;-78
2023/04/25 11:26:25;;;;;;;16.50;9.32;;;;;;;10.85;nan;99589.84;4934836;28;19993;-76
2023/04/25 11:29:00;;;;;;;16.08;8.85;;;;;;;10.80;nan;99581.91;4924172;28;20055;-76
2023/04/25 11:31:25;;;;;;;12.52;7.82;;;;;;;10.71;nan;99564.94;4936789;28;20088;-76
2023/04/25 11:33:54;;;;;;;12.20;8.05;;;;;;;10.85;nan;99589.84;4937472;28;20049;-76
2023/04/25 11:36:23;;;;;;;13.35;9.10;;;;;;;10.89;nan;99589.34;4929414;29;20387;-76
2023/04/25 11:38:53;;;;;;;15.50;8.32;;;;;;;10.89;nan;99586.72;4939004;28;20507;-75
2023/04/25 11:41:20;;;;;;;11.32;8.90;;;;;;;10.88;nan;99588.56;4937115;28;20478;-75